This is the latest recevied weather packets stored in our database for station/object W8BS. If no packets are shown the sender has not sent any weather packets the latest 10 day(s).
| Time | Temp. | Humidity | Pressure | Rain* | Wind** | Luminosity | Snow |
|---|---|---|---|---|---|---|---|
| 1777730058 | 6.11° C | 79% | 1014.2 hPa | 0 mm | - | 669 W/m² | - |
| 1777729754 | 5.56° C | 80% | 1014 hPa | 0 mm | - | 155 W/m² | - |
| 1777729451 | 6.11° C | 79% | 1014.2 hPa | 0 mm | - | 404 W/m² | - |
| 1777729148 | 5.56° C | 81% | 1014.1 hPa | 0 mm | - | 600 W/m² | - |
| 1777728844 | 5.56° C | 81% | 1014.1 hPa | 0 mm | - | 503 W/m² | - |
| 1777728541 | 4.44° C | 84% | 1014 hPa | 0 mm | - | 436 W/m² | - |
| 1777728239 | 4.44° C | 85% | 1014.1 hPa | 0 mm | - | 136 W/m² | - |
| 1777727935 | 5° C | 85% | 1014.2 hPa | 0 mm | - | 446 W/m² | - |
| 1777727633 | 4.44° C | 88% | 1014.2 hPa | 0 mm | - | 425 W/m² | - |
| 1777727329 | 3.89° C | 89% | 1014.3 hPa | 0 mm | - | 134 W/m² | - |
| 1777727027 | 4.44° C | 88% | 1013.9 hPa | 0 mm | - | 138 W/m² | - |
| 1777726724 | 3.89° C | 92% | 1014 hPa | 0 mm | - | 307 W/m² | - |
| 1777726421 | 4.44° C | 91% | 1013.9 hPa | 0 mm | - | 109 W/m² | - |
| 1777726118 | 3.89° C | 93% | 1014.2 hPa | 0 mm | - | 242 W/m² | - |
| 1777725815 | 3.33° C | 96% | 1014.1 hPa | 0 mm | - | 212 W/m² | - |
| 1777725512 | 3.33° C | 98% | 1014.2 hPa | 0 mm | - | 51 W/m² | - |
| 1777725210 | 2.78° C | 99% | 1014.3 hPa | 0 mm | - | 157 W/m² | - |
| 1777724907 | 3.33° C | 99% | 1014.3 hPa | 0 mm | - | 152 W/m² | - |
| 1777724602 | 2.78° C | 99% | 1014.1 hPa | 0 mm | - | 173 W/m² | - |
| 1777724301 | 2.78° C | 99% | 1014.3 hPa | 0 mm | - | 104 W/m² | - |
| 1777723998 | 2.78° C | 99% | 1014.3 hPa | 0 mm | - | 116 W/m² | - |
| 1777723695 | 2.78° C | 99% | 1014.5 hPa | 0 mm | - | 64 W/m² | - |
| 1777723391 | 2.78° C | 99% | 1014.2 hPa | 0 mm | - | 57 W/m² | - |
| 1777723089 | 2.78° C | 99% | 1014.2 hPa | 0 mm | - | 78 W/m² | - |
| 1777722786 | 2.78° C | 99% | 1014.4 hPa | 0 mm | - | 105 W/m² | - |
* Rain latest hour (hover to see other rain measurements)
** Current wind speed in m/s (hover to see current wind gust speed)